createdAt,value
2023-05-06T00:03:36.003Z,10.3
2023-05-06T00:08:35.777Z,10.3
2023-05-06T00:13:35.843Z,10.3
2023-05-06T00:18:35.836Z,10.4
2023-05-06T00:23:35.828Z,10.4
2023-05-06T00:28:35.790Z,10.3
2023-05-06T00:33:35.809Z,10.1
2023-05-06T00:38:35.781Z,10.1
2023-05-06T00:43:35.817Z,9.9
2023-05-06T00:48:35.806Z,10.0
2023-05-06T00:53:35.846Z,9.8
2023-05-06T00:58:35.803Z,9.7
2023-05-06T01:03:35.904Z,9.7
2023-05-06T01:08:35.811Z,9.5
2023-05-06T01:13:35.857Z,9.5
2023-05-06T01:18:35.822Z,9.8
2023-05-06T01:23:35.851Z,9.7
2023-05-06T01:28:35.829Z,9.5
2023-05-06T01:33:35.846Z,9.4
2023-05-06T01:38:35.832Z,9.6
2023-05-06T01:43:35.859Z,9.7
2023-05-06T01:48:35.832Z,9.8
2023-05-06T01:53:35.857Z,9.9
2023-05-06T02:03:35.916Z,9.9
2023-05-06T02:08:35.867Z,9.7
2023-05-06T02:13:35.878Z,9.6
2023-05-06T02:18:35.863Z,9.5
2023-05-06T02:23:35.940Z,9.4
2023-05-06T02:28:35.860Z,9.3
2023-05-06T02:33:35.877Z,9.2
2023-05-06T02:38:35.877Z,9.3
2023-05-06T02:43:35.904Z,9.3
2023-05-06T02:48:35.877Z,9.4
2023-05-06T02:53:35.966Z,9.6
2023-05-06T02:58:35.881Z,9.7
2023-05-06T03:03:35.928Z,9.9
2023-05-06T03:08:35.881Z,10.0
2023-05-06T03:13:35.927Z,10.1
2023-05-06T03:18:35.962Z,10.1
2023-05-06T03:23:35.983Z,10.0
2023-05-06T03:28:35.931Z,9.9
2023-05-06T03:33:35.944Z,9.8
2023-05-06T03:38:35.901Z,9.7
2023-05-06T03:43:35.932Z,9.6
2023-05-06T03:48:35.936Z,9.7
2023-05-06T03:53:35.947Z,9.8
2023-05-06T03:58:35.911Z,9.8
2023-05-06T04:03:35.993Z,9.7
2023-05-06T04:08:35.932Z,9.6
2023-05-06T04:13:35.988Z,9.6
2023-05-06T04:18:35.936Z,9.6
2023-05-06T04:23:36.050Z,9.7
2023-05-06T04:28:35.941Z,9.7
2023-05-06T04:33:35.924Z,9.9
2023-05-06T04:38:35.940Z,9.9
2023-05-06T04:43:35.963Z,10.1
2023-05-06T04:48:35.956Z,10.2
2023-05-06T04:53:36.064Z,10.4
2023-05-06T04:58:35.947Z,10.4
2023-05-06T05:03:36.001Z,10.4
2023-05-06T05:08:35.965Z,10.6
2023-05-06T05:13:35.990Z,10.5
2023-05-06T05:18:35.970Z,10.3
2023-05-06T05:23:36.046Z,10.5
2023-05-06T05:28:35.983Z,10.6
2023-05-06T05:33:36.017Z,10.5
2023-05-06T05:38:35.977Z,10.4
2023-05-06T05:43:36.013Z,10.7
2023-05-06T05:48:35.989Z,11.1
2023-05-06T05:53:36.051Z,11.2
2023-05-06T05:58:35.986Z,11.7
2023-05-06T06:03:36.155Z,11.6
2023-05-06T06:08:35.990Z,11.3
2023-05-06T06:13:36.028Z,11.2
2023-05-06T06:18:35.997Z,11.3
2023-05-06T06:23:36.019Z,12.0
2023-05-06T06:28:35.998Z,12.3
2023-05-06T06:33:36.019Z,12.5
2023-05-06T06:38:36.009Z,12.8
2023-05-06T06:43:36.047Z,12.4
2023-05-06T06:48:36.022Z,12.7
2023-05-06T06:53:36.035Z,13.4
2023-05-06T06:58:36.008Z,14.3
2023-05-06T07:03:36.044Z,13.8
2023-05-06T07:08:36.039Z,14.3
2023-05-06T07:13:36.047Z,14.9
2023-05-06T07:18:36.032Z,15.8
2023-05-06T07:23:36.107Z,15.2
2023-05-06T07:25:32.210Z,15.2
2023-05-06T07:28:36.067Z,15.3
2023-05-06T07:33:36.054Z,15.2
2023-05-06T07:38:36.043Z,15.9
2023-05-06T07:43:36.080Z,15.8
2023-05-06T07:48:36.057Z,15.5
2023-05-06T07:53:36.058Z,15.1
2023-05-06T07:58:36.078Z,15.1
2023-05-06T08:03:36.302Z,15.8
2023-05-06T08:08:36.066Z,16.4
2023-05-06T08:13:36.104Z,16.6
2023-05-06T08:18:36.080Z,16.4
2023-05-06T08:23:36.073Z,16.8
2023-05-06T08:28:36.105Z,16.8
2023-05-06T08:33:36.084Z,16.9
2023-05-06T08:38:36.081Z,17.7
2023-05-06T08:43:36.116Z,17.9
2023-05-06T08:48:36.094Z,17.7
2023-05-06T08:53:36.097Z,17.7
2023-05-06T08:58:36.115Z,18.5
2023-05-06T09:03:36.155Z,18.9
2023-05-06T09:08:36.115Z,19.2
2023-05-06T09:13:36.132Z,18.5
2023-05-06T09:18:36.116Z,19.9
2023-05-06T09:23:36.139Z,19.7
2023-05-06T09:28:36.173Z,19.9
2023-05-06T09:33:36.133Z,20.3
2023-05-06T09:38:36.130Z,19.7
2023-05-06T09:43:36.170Z,19.8
2023-05-06T09:48:36.142Z,20.0
2023-05-06T09:53:36.150Z,19.8
2023-05-06T09:58:36.164Z,20.4
2023-05-06T10:03:36.303Z,19.8
2023-05-06T10:08:36.152Z,19.8
2023-05-06T10:13:36.200Z,20.2
2023-05-06T10:18:36.178Z,19.4
2023-05-06T10:23:36.181Z,19.5
2023-05-06T10:28:36.183Z,19.1
2023-05-06T10:33:36.167Z,19.5
2023-05-06T10:38:36.164Z,20.3
2023-05-06T10:43:36.202Z,20.5
2023-05-06T10:48:36.174Z,20.8
2023-05-06T10:53:36.176Z,20.5
2023-05-06T10:58:36.195Z,20.4
2023-05-06T11:03:36.351Z,20.8
2023-05-06T11:08:36.201Z,20.3
2023-05-06T11:13:36.210Z,19.6
2023-05-06T11:18:36.194Z,20.2
2023-05-06T11:23:36.203Z,20.7
2023-05-06T11:28:36.215Z,20.6
2023-05-06T11:33:36.207Z,20.7
2023-05-06T11:38:36.211Z,20.8
2023-05-06T11:43:36.247Z,20.9
2023-05-06T11:53:36.214Z,20.6
2023-05-06T11:58:36.256Z,21.4
2023-05-06T12:03:36.373Z,21.3
2023-05-06T12:08:36.247Z,21.6
2023-05-06T12:13:36.273Z,22.1
2023-05-06T12:18:36.280Z,22.0
2023-05-06T12:23:36.312Z,21.4
2023-05-06T12:28:36.256Z,21.9
2023-05-06T12:33:36.239Z,22.4
2023-05-06T12:38:36.248Z,22.6
2023-05-06T12:43:36.273Z,22.6
2023-05-06T12:48:36.262Z,23.0
2023-05-06T12:53:36.246Z,22.5
2023-05-06T12:58:36.282Z,21.3
2023-05-06T13:03:38.286Z,21.0
2023-05-06T13:08:36.257Z,22.1
2023-05-06T13:13:36.306Z,22.1
2023-05-06T13:18:36.272Z,21.9
2023-05-06T13:23:36.268Z,21.9
2023-05-06T13:28:36.295Z,21.5
2023-05-06T13:33:36.275Z,21.6
2023-05-06T13:38:36.279Z,21.5
2023-05-06T13:43:36.310Z,21.7
2023-05-06T13:48:36.289Z,21.8
2023-05-06T13:53:36.290Z,22.1
2023-05-06T13:58:36.329Z,22.6
2023-05-06T14:03:36.286Z,21.6
2023-05-06T14:08:36.321Z,22.2
2023-05-06T14:13:36.352Z,22.3
2023-05-06T14:18:36.304Z,22.0
2023-05-06T14:23:36.311Z,21.4
2023-05-06T14:28:36.343Z,20.6
2023-05-06T14:33:36.322Z,20.8
2023-05-06T14:38:36.328Z,21.0
2023-05-06T14:43:36.341Z,21.1
2023-05-06T14:48:36.325Z,21.1
2023-05-06T14:53:36.338Z,21.4
2023-05-06T14:58:36.359Z,21.3
2023-05-06T15:03:36.382Z,21.0
2023-05-06T15:08:36.359Z,21.0
2023-05-06T15:13:36.370Z,21.3
2023-05-06T15:18:36.356Z,21.4
2023-05-06T15:23:36.355Z,21.6
2023-05-06T15:28:36.389Z,21.4
2023-05-06T15:33:36.361Z,21.1
2023-05-06T15:38:36.349Z,20.8
2023-05-06T15:43:38.730Z,20.6
2023-05-06T15:48:36.726Z,20.5
2023-05-06T15:53:36.368Z,20.4
2023-05-06T15:58:36.376Z,20.3
2023-05-06T16:03:36.560Z,20.2
2023-05-06T16:08:36.374Z,20.1
2023-05-06T16:18:36.407Z,20.1
2023-05-06T16:23:36.384Z,20.0
2023-05-06T16:28:38.121Z,19.9
2023-05-06T16:33:36.398Z,19.7
2023-05-06T16:38:36.400Z,19.5
2023-05-06T16:43:36.402Z,18.4
2023-05-06T16:48:36.505Z,17.0
2023-05-06T16:53:36.403Z,16.0
2023-05-06T16:58:36.434Z,14.8
2023-05-06T17:03:36.427Z,13.7
2023-05-06T17:08:37.265Z,13.5
2023-05-06T17:13:36.413Z,13.2
2023-05-06T17:18:36.432Z,13.6
2023-05-06T17:23:36.429Z,13.8
2023-05-06T17:28:36.443Z,13.9
2023-05-06T17:33:36.426Z,14.2
2023-05-06T17:38:36.432Z,14.3
2023-05-06T17:43:36.432Z,14.3
2023-05-06T17:48:36.471Z,14.3
2023-05-06T17:53:36.440Z,14.4
2023-05-06T17:58:36.463Z,14.4
2023-05-06T18:03:36.596Z,14.4
2023-05-06T18:08:36.447Z,14.3
2023-05-06T18:13:36.449Z,14.2
2023-05-06T18:18:36.484Z,14.2
2023-05-06T18:23:36.458Z,14.2
2023-05-06T18:28:36.486Z,14.2
2023-05-06T18:33:36.477Z,14.3
2023-05-06T18:38:36.469Z,14.3
2023-05-06T18:43:36.480Z,14.4
2023-05-06T18:48:36.505Z,14.4
2023-05-06T18:53:36.478Z,14.2
2023-05-06T18:58:36.504Z,14.1
2023-05-06T19:03:36.545Z,14.1
2023-05-06T19:08:36.485Z,14.1
2023-05-06T19:13:36.493Z,14.0
2023-05-06T19:18:36.516Z,13.9
2023-05-06T19:23:36.510Z,13.9
2023-05-06T19:28:36.519Z,13.9
2023-05-06T19:33:36.528Z,14.0
2023-05-06T19:43:36.509Z,14.0
2023-05-06T19:48:36.959Z,13.8
2023-05-06T19:58:36.541Z,13.9
2023-05-06T20:08:36.531Z,13.8
2023-05-06T20:13:36.561Z,13.8
2023-05-06T20:18:36.563Z,13.8
2023-05-06T20:33:36.538Z,13.8
2023-05-06T20:38:36.534Z,13.8
2023-05-06T20:43:36.561Z,13.7
2023-05-06T20:48:36.579Z,13.8
2023-05-06T20:53:36.550Z,13.8
2023-05-06T20:58:36.557Z,13.8
2023-05-06T21:03:36.590Z,13.8
2023-05-06T21:08:36.570Z,13.8
2023-05-06T21:13:36.555Z,13.8
2023-05-06T21:23:36.603Z,13.7
2023-05-06T21:28:36.571Z,13.6
2023-05-06T21:33:36.602Z,13.6
2023-05-06T21:38:36.574Z,13.6
2023-05-06T21:43:36.579Z,13.6
2023-05-06T21:48:36.580Z,13.6
2023-05-06T21:53:36.884Z,13.6
2023-05-06T21:58:36.591Z,13.6
2023-05-06T22:03:36.731Z,13.6
2023-05-06T22:08:36.601Z,13.6
2023-05-06T22:23:36.965Z,13.6
2023-05-06T22:33:36.631Z,13.5
2023-05-06T22:38:36.605Z,13.6
2023-05-06T22:43:36.619Z,13.6
2023-05-06T22:53:36.705Z,13.6
2023-05-06T22:58:36.618Z,13.6
2023-05-06T23:03:36.693Z,13.6
2023-05-06T23:08:36.623Z,13.6
2023-05-06T23:13:36.676Z,13.6
2023-05-06T23:18:36.644Z,13.6
2023-05-06T23:23:36.663Z,13.6
2023-05-06T23:28:36.649Z,13.6
2023-05-06T23:33:36.669Z,13.6
2023-05-06T23:38:36.654Z,13.6
2023-05-06T23:43:36.653Z,13.6
2023-05-06T23:48:36.661Z,13.5
2023-05-06T23:53:36.887Z,13.6
